Time;durP1;ratioP1;P1;durP2;ratioP2;P2;SDS_P1;SDS_P2;PMS_P1;PMS_P2;Temp;Humidity;BMP_temperature;BMP_pressure;BME280_temperature;BME280_humidity;BME280_pressure;Samples;Min_cycle;Max_cycle;Signal;HPM_P1;HPM_P2
2023/08/11 00:00:50;;;;;;;11.95;2.88;;;;;;;;;;5133607;27;20043;-75
2023/08/11 00:03:31;;;;;;;14.65;3.38;;;;;;;;;;5133727;27;20387;-70
2023/08/11 00:05:56;;;;;;;13.73;3.03;;;;;;;;;;5136812;27;20064;-70
2023/08/11 00:08:23;;;;;;;13.90;2.88;;;;;;;;;;5134053;27;20557;-74
2023/08/11 00:10:49;;;;;;;15.48;2.83;;;;;;;;;;5135562;27;20054;-70
2023/08/11 00:13:15;;;;;;;10.75;2.85;;;;;;;;;;5138219;27;20050;-71
2023/08/11 00:15:41;;;;;;;11.98;2.63;;;;;;;;;;5135146;27;20751;-72
2023/08/11 00:18:10;;;;;;;10.45;2.65;;;;;;;;;;5135285;27;20057;-70
2023/08/11 00:20:36;;;;;;;8.95;2.63;;;;;;;;;;5133900;27;20098;-74
2023/08/11 00:23:03;;;;;;;10.98;2.88;;;;;;;;;;5135564;27;20521;-71
2023/08/11 00:25:29;;;;;;;13.05;3.05;;;;;;;;;;5131714;27;20137;-73
2023/08/11 00:27:55;;;;;;;11.88;3.00;;;;;;;;;;5137270;27;20065;-71
2023/08/11 00:30:23;;;;;;;9.93;2.63;;;;;;;;;;5132806;27;20061;-70
2023/08/11 00:32:49;;;;;;;13.77;3.00;;;;;;;;;;5121751;27;22197;-73
2023/08/11 00:35:16;;;;;;;12.10;2.95;;;;;;;;;;5135381;27;20054;-69
2023/08/11 00:37:42;;;;;;;14.73;2.83;;;;;;;;;;5136290;27;20247;-72
2023/08/11 00:40:11;;;;;;;12.98;2.97;;;;;;;;;;5133673;27;20200;-69
2023/08/11 00:42:37;;;;;;;10.75;2.58;;;;;;;;;;5135540;27;20070;-70
2023/08/11 00:45:05;;;;;;;14.00;2.60;;;;;;;;;;5136057;27;20050;-70
2023/08/11 00:47:32;;;;;;;10.15;2.65;;;;;;;;;;5138081;27;20052;-70
2023/08/11 00:49:59;;;;;;;12.50;2.90;;;;;;;;;;5134786;27;20046;-76
2023/08/11 00:52:25;;;;;;;9.07;3.30;;;;;;;;;;5135898;27;20054;-71
2023/08/11 00:54:53;;;;;;;11.15;2.75;;;;;;;;;;5135142;27;20042;-70
2023/08/11 00:57:20;;;;;;;11.52;2.95;;;;;;;;;;5134771;27;20081;-68
2023/08/11 00:59:46;;;;;;;13.63;2.50;;;;;;;;;;5134520;27;20058;-69
2023/08/11 01:02:13;;;;;;;9.05;3.08;;;;;;;;;;5136081;27;20042;-71
2023/08/11 01:04:39;;;;;;;10.02;2.60;;;;;;;;;;5135440;27;20189;-72
2023/08/11 01:07:27;;;;;;;13.07;2.97;;;;;;;;;;5137622;27;20397;-69
2023/08/11 01:10:10;;;;;;;9.02;2.72;;;;;;;;;;5138045;27;20057;-68
2023/08/11 01:13:05;;;;;;;12.77;2.90;;;;;;;;;;5131997;27;20110;-69
2023/08/11 01:15:36;;;;;;;17.38;3.38;;;;;;;;;;5133879;27;20054;-69
2023/08/11 01:18:05;;;;;;;15.98;3.45;;;;;;;;;;5134195;27;20691;-70
2023/08/11 01:20:33;;;;;;;12.25;3.33;;;;;;;;;;5135637;27;20437;-68
2023/08/11 01:23:00;;;;;;;13.57;3.60;;;;;;;;;;5134398;27;20055;-68
2023/08/11 01:25:27;;;;;;;10.57;3.22;;;;;;;;;;5135460;27;20050;-71
2023/08/11 01:27:56;;;;;;;11.77;3.05;;;;;;;;;;5135865;27;20406;-70
2023/08/11 01:30:23;;;;;;;13.00;2.85;;;;;;;;;;5130627;27;20042;-69
2023/08/11 01:32:51;;;;;;;13.15;2.83;;;;;;;;;;5134452;27;20566;-70
2023/08/11 01:35:21;;;;;;;11.02;3.13;;;;;;;;;;5135110;27;20054;-70
2023/08/11 01:37:47;;;;;;;19.25;2.97;;;;;;;;;;5136201;27;20054;-70
2023/08/11 01:40:14;;;;;;;13.65;2.97;;;;;;;;;;5135846;27;20110;-69
2023/08/11 01:42:42;;;;;;;9.35;2.83;;;;;;;;;;5139154;27;20062;-69
2023/08/11 01:45:09;;;;;;;10.65;2.85;;;;;;;;;;5137128;27;20051;-70
2023/08/11 01:47:36;;;;;;;16.63;3.10;;;;;;;;;;5139998;27;20448;-71
2023/08/11 01:50:03;;;;;;;17.20;2.97;;;;;;;;;;5135363;27;20061;-70
2023/08/11 01:52:39;;;;;;;10.40;2.90;;;;;;;;;;5138443;27;20068;-69
2023/08/11 01:55:06;;;;;;;10.05;2.80;;;;;;;;;;5138202;27;20137;-69
2023/08/11 01:57:34;;;;;;;14.20;3.33;;;;;;;;;;5137889;27;20069;-70
2023/08/11 01:59:59;;;;;;;10.80;3.45;;;;;;;;;;5137500;27;20483;-68
2023/08/11 02:02:26;;;;;;;8.93;3.22;;;;;;;;;;5138007;27;20051;-70
2023/08/11 02:04:52;;;;;;;11.13;3.30;;;;;;;;;;5136763;27;20055;-70
2023/08/11 02:07:19;;;;;;;10.30;3.17;;;;;;;;;;5137971;27;20050;-70
2023/08/11 02:09:45;;;;;;;11.63;3.55;;;;;;;;;;5126270;27;21006;-67
2023/08/11 02:12:12;;;;;;;10.02;3.40;;;;;;;;;;5138685;27;20506;-70
2023/08/11 02:14:38;;;;;;;13.07;3.45;;;;;;;;;;5137601;27;20509;-69
2023/08/11 02:17:04;;;;;;;16.17;3.85;;;;;;;;;;5121964;27;20062;-68
2023/08/11 02:19:29;;;;;;;11.68;3.50;;;;;;;;;;5137561;27;20043;-70
2023/08/11 02:21:56;;;;;;;11.38;3.58;;;;;;;;;;5137037;27;20042;-70
2023/08/11 02:24:21;;;;;;;9.45;2.90;;;;;;;;;;5136852;27;20053;-68
2023/08/11 02:26:47;;;;;;;12.82;3.20;;;;;;;;;;5133927;27;20214;-68
2023/08/11 02:29:13;;;;;;;10.80;3.22;;;;;;;;;;5135266;27;20062;-68
2023/08/11 02:31:39;;;;;;;19.50;3.40;;;;;;;;;;5134344;27;21242;-69
2023/08/11 02:34:05;;;;;;;15.23;3.60;;;;;;;;;;5138460;27;20058;-69
2023/08/11 02:36:31;;;;;;;13.07;3.20;;;;;;;;;;5136967;27;20064;-69
2023/08/11 02:38:57;;;;;;;10.32;3.10;;;;;;;;;;5137279;27;20568;-69
2023/08/11 02:41:23;;;;;;;12.50;3.33;;;;;;;;;;5135716;27;20042;-69
2023/08/11 02:43:49;;;;;;;10.75;3.00;;;;;;;;;;5137264;27;20057;-70
2023/08/11 02:46:15;;;;;;;15.82;3.42;;;;;;;;;;5114663;27;20784;-70
2023/08/11 02:48:41;;;;;;;12.65;3.10;;;;;;;;;;5138128;27;20053;-69
2023/08/11 02:51:08;;;;;;;12.88;2.90;;;;;;;;;;5137926;27;20054;-70
2023/08/11 02:53:35;;;;;;;12.93;3.28;;;;;;;;;;5138467;27;20074;-70
2023/08/11 02:56:06;;;;;;;17.52;3.58;;;;;;;;;;5136466;27;20713;-68
2023/08/11 02:58:33;;;;;;;12.25;2.92;;;;;;;;;;5137089;27;20517;-69
2023/08/11 03:01:00;;;;;;;15.00;2.72;;;;;;;;;;5137431;27;20055;-68
2023/08/11 03:03:26;;;;;;;11.48;2.85;;;;;;;;;;5122737;27;20082;-70
2023/08/11 03:05:55;;;;;;;9.02;3.05;;;;;;;;;;5134405;27;20451;-72
2023/08/11 03:08:21;;;;;;;11.68;3.40;;;;;;;;;;5139971;27;20046;-69
2023/08/11 03:10:47;;;;;;;14.15;3.40;;;;;;;;;;5143483;27;20054;-68
2023/08/11 03:13:13;;;;;;;7.75;3.30;;;;;;;;;;5121725;27;20546;-71
2023/08/11 03:15:39;;;;;;;10.70;3.20;;;;;;;;;;5134799;27;20410;-69
2023/08/11 03:18:05;;;;;;;9.93;3.00;;;;;;;;;;5137668;27;20054;-70
2023/08/11 03:20:31;;;;;;;11.68;3.10;;;;;;;;;;5135064;27;20053;-69
2023/08/11 03:22:57;;;;;;;11.65;2.88;;;;;;;;;;5137143;27;20414;-71
2023/08/11 03:25:23;;;;;;;10.80;3.00;;;;;;;;;;5134956;27;21119;-71
2023/08/11 03:27:50;;;;;;;12.38;3.00;;;;;;;;;;5136718;27;20043;-70
2023/08/11 03:30:16;;;;;;;10.00;2.75;;;;;;;;;;5136303;27;20047;-71
2023/08/11 03:32:42;;;;;;;9.90;2.85;;;;;;;;;;5139190;27;20054;-70
2023/08/11 03:35:08;;;;;;;15.23;3.53;;;;;;;;;;5135089;27;20133;-71
2023/08/11 03:37:34;;;;;;;10.40;2.83;;;;;;;;;;5122062;27;20540;-71
2023/08/11 03:40:04;;;;;;;9.10;2.95;;;;;;;;;;5133760;27;20654;-72
2023/08/11 03:42:29;;;;;;;9.90;3.30;;;;;;;;;;5136166;27;22223;-71
2023/08/11 03:44:55;;;;;;;12.02;3.25;;;;;;;;;;5134689;27;20050;-71
2023/08/11 03:47:21;;;;;;;14.00;3.35;;;;;;;;;;5136870;27;20409;-71
2023/08/11 03:49:47;;;;;;;13.43;3.22;;;;;;;;;;5135698;27;20042;-70
2023/08/11 03:52:13;;;;;;;11.13;3.45;;;;;;;;;;5135994;27;20046;-69
2023/08/11 03:54:39;;;;;;;15.38;3.38;;;;;;;;;;5133600;27;20497;-72
2023/08/11 03:57:06;;;;;;;12.13;3.30;;;;;;;;;;5135434;27;20053;-71
2023/08/11 03:59:33;;;;;;;11.77;3.10;;;;;;;;;;5116012;27;20484;-70
2023/08/11 04:01:59;;;;;;;14.57;3.40;;;;;;;;;;5135603;27;20046;-71
2023/08/11 04:04:25;;;;;;;11.95;3.35;;;;;;;;;;5135147;27;20046;-71
2023/08/11 04:06:51;;;;;;;9.93;3.47;;;;;;;;;;5132576;27;20047;-70
2023/08/11 04:09:18;;;;;;;8.30;2.97;;;;;;;;;;5134081;27;20131;-70
2023/08/11 04:11:44;;;;;;;13.18;3.40;;;;;;;;;;5134040;27;20072;-70
2023/08/11 04:14:10;;;;;;;9.52;3.10;;;;;;;;;;5136283;27;20097;-71
2023/08/11 04:16:36;;;;;;;13.85;3.50;;;;;;;;;;5134659;27;20486;-71
2023/08/11 04:19:03;;;;;;;14.95;3.97;;;;;;;;;;5136711;27;20057;-72
2023/08/11 04:21:29;;;;;;;12.52;3.78;;;;;;;;;;5134406;27;20245;-72
2023/08/11 04:23:55;;;;;;;10.38;3.55;;;;;;;;;;5136013;27;20053;-69
2023/08/11 04:26:20;;;;;;;14.27;3.70;;;;;;;;;;5131735;27;20548;-70
2023/08/11 04:28:46;;;;;;;8.85;3.42;;;;;;;;;;5135707;27;20104;-70
2023/08/11 04:31:13;;;;;;;14.27;3.58;;;;;;;;;;5135703;27;20415;-71
2023/08/11 04:33:39;;;;;;;10.27;3.75;;;;;;;;;;5137122;27;20571;-69
2023/08/11 04:36:05;;;;;;;12.13;3.70;;;;;;;;;;5135076;27;20054;-70
2023/08/11 04:38:31;;;;;;;14.50;3.75;;;;;;;;;;5136123;27;20055;-70
2023/08/11 04:40:58;;;;;;;13.00;4.50;;;;;;;;;;5133669;27;20058;-72
2023/08/11 04:43:24;;;;;;;17.60;4.30;;;;;;;;;;5135058;27;20046;-70
2023/08/11 04:45:50;;;;;;;10.63;3.80;;;;;;;;;;5135693;27;20083;-70
2023/08/11 04:48:16;;;;;;;15.00;4.22;;;;;;;;;;5136592;27;20182;-71
2023/08/11 04:50:46;;;;;;;14.93;4.32;;;;;;;;;;5134153;27;20047;-69
2023/08/11 04:53:13;;;;;;;12.75;3.80;;;;;;;;;;5139487;27;20069;-68
2023/08/11 04:55:40;;;;;;;13.48;3.92;;;;;;;;;;5138171;27;20313;-70
2023/08/11 04:58:06;;;;;;;10.57;3.50;;;;;;;;;;5134621;27;20233;-71
2023/08/11 05:00:33;;;;;;;10.43;3.20;;;;;;;;;;5131093;27;20514;-70
2023/08/11 05:02:59;;;;;;;12.75;3.45;;;;;;;;;;5142126;27;22092;-69
2023/08/11 05:05:26;;;;;;;10.93;3.65;;;;;;;;;;5134820;27;20150;-71
2023/08/11 05:07:52;;;;;;;13.55;3.10;;;;;;;;;;5139304;27;20047;-68
2023/08/11 05:10:18;;;;;;;9.32;3.47;;;;;;;;;;5136368;27;20391;-69
2023/08/11 05:12:45;;;;;;;11.02;3.13;;;;;;;;;;5128077;27;20047;-71
2023/08/11 05:15:11;;;;;;;13.55;4.22;;;;;;;;;;5136596;27;20073;-71
2023/08/11 05:17:37;;;;;;;10.35;3.47;;;;;;;;;;5137910;27;20065;-71
2023/08/11 05:20:07;;;;;;;10.80;3.38;;;;;;;;;;5137181;27;20490;-71
2023/08/11 05:22:34;;;;;;;10.85;3.78;;;;;;;;;;5137391;27;20043;-67
2023/08/11 05:25:03;;;;;;;12.90;3.85;;;;;;;;;;5136765;27;20065;-67
2023/08/11 05:27:30;;;;;;;15.32;3.60;;;;;;;;;;5143344;27;20050;-65
2023/08/11 05:29:56;;;;;;;10.85;3.80;;;;;;;;;;5137271;27;20050;-67
2023/08/11 05:32:26;;;;;;;18.75;4.68;;;;;;;;;;5139093;27;20062;-67
2023/08/11 05:34:58;;;;;;;13.50;3.83;;;;;;;;;;5139045;27;20074;-66
2023/08/11 05:37:24;;;;;;;16.98;5.07;;;;;;;;;;5139444;27;20162;-69
2023/08/11 05:39:52;;;;;;;17.23;4.95;;;;;;;;;;5137004;27;20042;-66
2023/08/11 05:42:21;;;;;;;19.00;5.30;;;;;;;;;;5126064;27;20049;-68
2023/08/11 05:44:47;;;;;;;19.33;5.05;;;;;;;;;;5137440;27;20105;-67
2023/08/11 05:47:13;;;;;;;21.15;4.65;;;;;;;;;;5138272;27;20057;-69
2023/08/11 05:49:39;;;;;;;15.98;3.95;;;;;;;;;;5138718;27;20038;-68
2023/08/11 05:52:05;;;;;;;9.85;3.88;;;;;;;;;;5142949;27;20054;-68
2023/08/11 05:54:31;;;;;;;12.23;3.53;;;;;;;;;;5144074;27;20041;-69
2023/08/11 05:56:57;;;;;;;10.55;3.00;;;;;;;;;;5137696;27;20074;-70
2023/08/11 05:59:23;;;;;;;12.60;3.85;;;;;;;;;;5138763;27;20521;-67
2023/08/11 06:01:50;;;;;;;10.88;3.42;;;;;;;;;;5143235;27;20043;-67
2023/08/11 06:04:16;;;;;;;15.70;3.47;;;;;;;;;;5137082;27;20055;-67
2023/08/11 06:06:42;;;;;;;11.18;2.97;;;;;;;;;;5131825;27;20051;-69
2023/08/11 06:09:09;;;;;;;9.30;3.60;;;;;;;;;;5139335;27;20095;-69
2023/08/11 06:11:36;;;;;;;11.80;3.55;;;;;;;;;;5123706;27;20054;-69
2023/08/11 06:14:03;;;;;;;10.88;3.50;;;;;;;;;;5134751;27;21443;-68
2023/08/11 06:16:29;;;;;;;13.13;3.95;;;;;;;;;;5136427;27;20062;-68
2023/08/11 06:18:55;;;;;;;9.82;3.58;;;;;;;;;;5138457;27;20409;-66
2023/08/11 06:21:22;;;;;;;13.88;3.92;;;;;;;;;;5139658;27;20050;-65
2023/08/11 06:23:47;;;;;;;11.68;3.80;;;;;;;;;;5136839;27;20046;-67
2023/08/11 06:26:13;;;;;;;7.82;3.63;;;;;;;;;;5133756;27;20039;-67
2023/08/11 06:28:41;;;;;;;14.30;4.35;;;;;;;;;;5134179;27;20047;-68
2023/08/11 06:31:09;;;;;;;16.48;4.45;;;;;;;;;;5138144;27;20055;-68
2023/08/11 06:33:35;;;;;;;14.65;4.95;;;;;;;;;;5135195;27;20054;-67
2023/08/11 06:36:01;;;;;;;13.20;4.68;;;;;;;;;;5138600;27;20058;-71
2023/08/11 06:38:27;;;;;;;12.32;4.70;;;;;;;;;;5140362;27;20117;-69
2023/08/11 06:40:54;;;;;;;12.02;5.15;;;;;;;;;;5137922;27;20475;-69
2023/08/11 06:43:19;;;;;;;10.38;4.65;;;;;;;;;;5146894;27;20043;-67
2023/08/11 06:45:46;;;;;;;14.25;5.55;;;;;;;;;;5150716;27;20505;-69
2023/08/11 06:48:12;;;;;;;14.23;4.55;;;;;;;;;;5141393;27;20046;-68
2023/08/11 06:50:38;;;;;;;15.18;4.65;;;;;;;;;;5137012;27;20111;-67
2023/08/11 06:53:04;;;;;;;11.23;4.25;;;;;;;;;;5135017;27;20054;-68
2023/08/11 06:55:30;;;;;;;15.68;5.03;;;;;;;;;;5137461;27;20047;-67
2023/08/11 06:57:56;;;;;;;11.40;4.72;;;;;;;;;;5138978;27;20626;-66
2023/08/11 07:00:22;;;;;;;9.68;4.63;;;;;;;;;;5135516;27;20151;-68
2023/08/11 07:02:48;;;;;;;15.60;4.78;;;;;;;;;;5143418;27;20057;-66
2023/08/11 07:05:14;;;;;;;12.00;4.45;;;;;;;;;;5140480;27;20661;-68
2023/08/11 07:07:41;;;;;;;10.63;4.68;;;;;;;;;;5140524;27;20061;-68
2023/08/11 07:10:07;;;;;;;11.45;4.68;;;;;;;;;;5138527;27;20057;-68
2023/08/11 07:12:33;;;;;;;14.93;5.13;;;;;;;;;;5137595;27;20042;-69
2023/08/11 07:15:00;;;;;;;15.60;5.07;;;;;;;;;;5136519;27;20047;-67
2023/08/11 07:17:25;;;;;;;14.55;5.45;;;;;;;;;;5139351;27;20042;-69
2023/08/11 07:19:51;;;;;;;18.38;6.30;;;;;;;;;;5138767;27;20410;-68
2023/08/11 07:22:17;;;;;;;11.43;5.18;;;;;;;;;;5142795;27;20043;-68
2023/08/11 07:24:44;;;;;;;10.40;4.63;;;;;;;;;;5138794;27;20053;-67
2023/08/11 07:27:10;;;;;;;9.82;4.60;;;;;;;;;;5139969;27;20050;-66
2023/08/11 07:29:37;;;;;;;13.07;4.75;;;;;;;;;;5133114;27;20638;-69
2023/08/11 07:32:05;;;;;;;11.60;4.80;;;;;;;;;;5137608;27;20050;-67
2023/08/11 07:34:31;;;;;;;15.15;4.25;;;;;;;;;;5137075;27;20061;-70
2023/08/11 07:36:57;;;;;;;14.73;4.82;;;;;;;;;;5136694;27;20046;-68
2023/08/11 07:39:23;;;;;;;12.35;4.82;;;;;;;;;;5137922;27;20051;-68
2023/08/11 07:41:50;;;;;;;11.02;5.18;;;;;;;;;;5137126;27;20051;-70
2023/08/11 07:44:16;;;;;;;15.35;5.15;;;;;;;;;;5137041;27;20066;-68
2023/08/11 07:46:42;;;;;;;12.10;4.63;;;;;;;;;;5134054;27;20127;-70
2023/08/11 07:49:08;;;;;;;12.52;4.40;;;;;;;;;;5135276;27;20058;-68
2023/08/11 07:51:34;;;;;;;12.02;4.60;;;;;;;;;;5121224;27;20356;-68
2023/08/11 07:54:00;;;;;;;12.27;4.50;;;;;;;;;;5139671;27;20054;-68
2023/08/11 07:56:25;;;;;;;13.95;4.72;;;;;;;;;;5138013;27;20993;-69
2023/08/11 07:58:53;;;;;;;14.93;4.63;;;;;;;;;;5135930;27;20053;-68
2023/08/11 08:01:19;;;;;;;12.93;4.75;;;;;;;;;;5138485;27;20131;-67
2023/08/11 08:03:45;;;;;;;14.43;4.70;;;;;;;;;;5136214;27;20054;-68
2023/08/11 08:06:11;;;;;;;16.17;4.75;;;;;;;;;;5140596;27;20053;-69
2023/08/11 08:08:37;;;;;;;12.32;4.78;;;;;;;;;;5135683;27;22795;-69
2023/08/11 08:11:03;;;;;;;13.13;5.15;;;;;;;;;;5119560;27;20038;-69
2023/08/11 08:13:31;;;;;;;14.43;4.53;;;;;;;;;;5136316;27;20054;-70
2023/08/11 08:15:57;;;;;;;11.52;4.90;;;;;;;;;;5134145;27;20563;-69
2023/08/11 08:18:23;;;;;;;12.48;5.00;;;;;;;;;;5136428;27;20046;-68
2023/08/11 08:20:49;;;;;;;11.00;4.82;;;;;;;;;;5131924;27;20096;-71
2023/08/11 08:23:15;;;;;;;10.25;4.55;;;;;;;;;;5135323;27;20405;-74
2023/08/11 08:25:41;;;;;;;12.07;4.78;;;;;;;;;;5133218;27;20111;-73
2023/08/11 08:28:07;;;;;;;11.90;4.68;;;;;;;;;;5137773;27;20055;-77
2023/08/11 08:30:33;;;;;;;17.42;5.00;;;;;;;;;;5135255;27;20058;-68
2023/08/11 08:33:00;;;;;;;17.90;5.28;;;;;;;;;;5137245;27;20050;-70
2023/08/11 08:35:26;;;;;;;12.02;4.82;;;;;;;;;;5133716;27;20074;-68
2023/08/11 08:37:52;;;;;;;13.95;4.88;;;;;;;;;;5136056;27;20444;-71
2023/08/11 08:40:18;;;;;;;12.30;5.20;;;;;;;;;;5131544;27;20057;-71
2023/08/11 08:42:44;;;;;;;15.82;5.18;;;;;;;;;;5139219;27;20065;-69
2023/08/11 08:45:11;;;;;;;13.57;4.90;;;;;;;;;;5131481;27;20051;-69
2023/08/11 08:47:39;;;;;;;15.60;4.57;;;;;;;;;;5143348;27;20298;-66
2023/08/11 08:50:08;;;;;;;16.40;5.20;;;;;;;;;;5144150;27;20050;-67
2023/08/11 08:52:35;;;;;;;16.38;5.32;;;;;;;;;;5142580;27;20058;-69
2023/08/11 08:55:01;;;;;;;13.85;4.95;;;;;;;;;;5141776;27;20055;-68
2023/08/11 08:57:27;;;;;;;17.13;5.30;;;;;;;;;;5143110;27;20054;-68
2023/08/11 08:59:53;;;;;;;11.95;4.93;;;;;;;;;;5140047;27;20050;-68
2023/08/11 09:02:20;;;;;;;10.23;4.50;;;;;;;;;;5148009;27;20057;-68
2023/08/11 09:04:47;;;;;;;14.20;5.10;;;;;;;;;;5148438;27;20042;-67
2023/08/11 09:07:13;;;;;;;14.52;4.75;;;;;;;;;;5144466;27;20432;-67
2023/08/11 09:09:39;;;;;;;13.90;4.93;;;;;;;;;;5136470;27;20046;-65
2023/08/11 09:12:06;;;;;;;12.00;5.25;;;;;;;;;;5139301;27;20455;-66
2023/08/11 09:15:11;;;;;;;12.25;5.25;;;;;;;;;;5138473;27;20055;-67
2023/08/11 09:18:55;;;;;;;12.65;5.28;;;;;;;;;;5144830;27;20045;-66
2023/08/11 09:22:37;;;;;;;14.38;4.97;;;;;;;;;;5144700;27;20046;-66
2023/08/11 09:26:15;;;;;;;13.68;4.90;;;;;;;;;;5143395;27;20504;-66
2023/08/11 09:29:59;;;;;;;10.88;4.38;;;;;;;;;;5145462;27;20082;-67
2023/08/11 09:33:42;;;;;;;10.95;4.68;;;;;;;;;;5144536;27;20490;-68
2023/08/11 09:37:22;;;;;;;11.50;4.55;;;;;;;;;;5142154;27;20078;-66
2023/08/11 09:41:03;;;;;;;10.25;4.97;;;;;;;;;;5140884;27;20092;-67
2023/08/11 09:44:43;;;;;;;11.60;4.60;;;;;;;;;;5143397;27;20122;-68
2023/08/11 09:48:23;;;;;;;11.73;4.75;;;;;;;;;;5145161;27;20042;-69
2023/08/11 09:52:04;;;;;;;11.02;4.65;;;;;;;;;;5144842;27;20045;-67
2023/08/11 09:55:44;;;;;;;13.60;4.80;;;;;;;;;;5141984;27;20046;-70
2023/08/11 09:59:30;;;;;;;12.98;4.40;;;;;;;;;;5144194;27;20046;-67
2023/08/11 10:03:10;;;;;;;9.00;3.92;;;;;;;;;;5144709;27;20156;-68
2023/08/11 10:06:51;;;;;;;10.82;4.25;;;;;;;;;;5144558;27;20203;-69
2023/08/11 10:10:33;;;;;;;14.32;4.43;;;;;;;;;;5142208;27;20043;-72
2023/08/11 10:14:14;;;;;;;12.43;4.53;;;;;;;;;;5145677;27;20050;-69
2023/08/11 10:17:56;;;;;;;15.70;5.00;;;;;;;;;;5145180;27;20035;-67
2023/08/11 10:21:17;;;;;;;9.60;4.30;;;;;;;;;;5143470;27;20047;-66
2023/08/11 10:24:40;;;;;;;10.38;4.28;;;;;;;;;;5143489;27;21829;-68
2023/08/11 10:28:18;;;;;;;13.43;4.45;;;;;;;;;;5144516;27;20042;-67
2023/08/11 10:31:59;;;;;;;11.77;5.10;;;;;;;;;;5138485;27;20050;-68
2023/08/11 10:35:39;;;;;;;16.20;5.30;;;;;;;;;;5140530;27;21217;-69
2023/08/11 10:39:22;;;;;;;13.70;4.50;;;;;;;;;;5140936;27;20398;-67
2023/08/11 10:43:03;;;;;;;11.88;4.60;;;;;;;;;;5142773;27;20107;-66
2023/08/11 10:46:50;;;;;;;14.60;4.72;;;;;;;;;;5143504;27;20073;-68
2023/08/11 10:50:28;;;;;;;17.67;5.20;;;;;;;;;;5138451;27;20751;-68
2023/08/11 10:54:11;;;;;;;11.13;4.75;;;;;;;;;;5137681;27;20717;-68
2023/08/11 10:57:51;;;;;;;13.95;5.38;;;;;;;;;;5143493;27;20042;-65
2023/08/11 11:01:31;;;;;;;10.13;4.70;;;;;;;;;;5138099;27;20042;-67
2023/08/11 11:05:19;;;;;;;15.45;5.10;;;;;;;;;;5142868;27;20060;-64
2023/08/11 11:08:52;;;;;;;12.85;5.13;;;;;;;;;;5145071;27;20042;-66
2023/08/11 11:12:34;;;;;;;13.00;4.50;;;;;;;;;;5146846;27;20116;-71
2023/08/11 11:16:14;;;;;;;10.40;4.30;;;;;;;;;;5138692;27;20860;-72
2023/08/11 11:19:55;;;;;;;10.52;4.20;;;;;;;;;;5135610;27;20273;-70
2023/08/11 11:23:35;;;;;;;14.13;4.00;;;;;;;;;;5137983;27;20493;-70
2023/08/11 11:27:15;;;;;;;11.43;3.95;;;;;;;;;;5141904;27;20035;-72
2023/08/11 11:30:56;;;;;;;10.57;3.45;;;;;;;;;;5152100;27;20274;-69
2023/08/11 11:34:37;;;;;;;9.55;3.72;;;;;;;;;;5142866;27;20038;-71
2023/08/11 11:38:16;;;;;;;13.18;3.45;;;;;;;;;;5137663;27;20061;-73
2023/08/11 11:41:58;;;;;;;9.40;3.50;;;;;;;;;;5137347;27;20402;-73
2023/08/11 11:45:38;;;;;;;9.73;3.28;;;;;;;;;;5136980;27;20046;-73
2023/08/11 11:49:18;;;;;;;13.13;2.63;;;;;;;;;;5141458;27;20045;-71
2023/08/11 11:52:59;;;;;;;8.45;2.63;;;;;;;;;;5141731;27;20651;-70
2023/08/11 11:56:39;;;;;;;11.43;3.08;;;;;;;;;;5137325;27;20069;-70
2023/08/11 12:00:21;;;;;;;9.15;3.08;;;;;;;;;;5136540;27;20105;-72
2023/08/11 12:04:00;;;;;;;10.18;2.85;;;;;;;;;;5139001;27;20069;-71
2023/08/11 12:07:29;;;;;;;9.60;3.13;;;;;;;;;;5137091;27;20155;-70
2023/08/11 12:11:12;;;;;;;9.82;3.10;;;;;;;;;;5135477;27;20071;-72
2023/08/11 12:14:53;;;;;;;9.02;3.00;;;;;;;;;;5137985;27;20066;-71
2023/08/11 12:18:33;;;;;;;12.82;3.30;;;;;;;;;;5136991;27;20102;-73
2023/08/11 12:22:13;;;;;;;7.45;3.00;;;;;;;;;;5134887;27;20061;-70
2023/08/11 12:25:53;;;;;;;10.57;3.03;;;;;;;;;;5135044;27;20482;-70
2023/08/11 12:29:34;;;;;;;9.77;3.00;;;;;;;;;;5139179;27;20050;-70
2023/08/11 12:33:31;;;;;;;8.40;3.03;;;;;;;;;;5136799;27;20050;-71
2023/08/11 12:37:14;;;;;;;7.28;2.30;;;;;;;;;;5134810;27;20542;-71
2023/08/11 12:40:52;;;;;;;7.50;2.38;;;;;;;;;;5135513;27;20050;-72
2023/08/11 12:44:32;;;;;;;12.60;2.80;;;;;;;;;;5137123;27;20554;-72
2023/08/11 12:48:13;;;;;;;11.05;2.50;;;;;;;;;;5143588;27;20051;-71
2023/08/11 12:51:53;;;;;;;8.70;2.28;;;;;;;;;;5138092;27;20038;-72
2023/08/11 12:55:33;;;;;;;8.93;2.40;;;;;;;;;;5135569;27;20092;-71
2023/08/11 12:59:13;;;;;;;7.90;2.35;;;;;;;;;;5133502;27;20422;-70
2023/08/11 13:02:54;;;;;;;9.75;2.70;;;;;;;;;;5138893;27;20258;-71
2023/08/11 13:06:34;;;;;;;9.60;2.58;;;;;;;;;;5137231;27;20535;-71
2023/08/11 13:10:16;;;;;;;9.27;2.30;;;;;;;;;;5136092;27;20042;-71
2023/08/11 13:13:56;;;;;;;10.05;2.20;;;;;;;;;;5137940;27;20149;-73
2023/08/11 13:17:36;;;;;;;7.03;2.30;;;;;;;;;;5137296;27;20681;-71
2023/08/11 13:21:16;;;;;;;7.63;2.30;;;;;;;;;;5137229;27;20038;-71
2023/08/11 13:24:57;;;;;;;10.45;2.55;;;;;;;;;;5138866;27;20406;-72
2023/08/11 13:28:37;;;;;;;8.48;2.17;;;;;;;;;;5136565;27;20189;-73
2023/08/11 13:32:17;;;;;;;8.23;2.78;;;;;;;;;;5135525;27;20565;-72
2023/08/11 13:35:57;;;;;;;10.02;2.58;;;;;;;;;;5139623;27;20058;-71
2023/08/11 13:39:38;;;;;;;9.80;2.40;;;;;;;;;;5141608;27;20531;-71
2023/08/11 13:43:19;;;;;;;11.27;2.40;;;;;;;;;;5163076;27;20043;-73
2023/08/11 13:46:59;;;;;;;6.15;2.15;;;;;;;;;;5141393;27;20490;-71
2023/08/11 13:50:39;;;;;;;7.85;2.47;;;;;;;;;;5139110;27;20042;-71
2023/08/11 13:54:23;;;;;;;11.40;2.70;;;;;;;;;;5143148;27;20489;-73
2023/08/11 13:58:04;;;;;;;8.88;2.40;;;;;;;;;;5143158;27;20050;-73
2023/08/11 14:01:45;;;;;;;18.63;2.70;;;;;;;;;;5141716;27;20053;-73
2023/08/11 14:05:29;;;;;;;6.63;2.60;;;;;;;;;;5141156;27;20233;-74
2023/08/11 14:09:06;;;;;;;10.15;2.55;;;;;;;;;;5140876;27;22383;-72
2023/08/11 14:12:46;;;;;;;9.00;2.40;;;;;;;;;;5141981;27;20047;-70
2023/08/11 14:16:28;;;;;;;7.68;2.53;;;;;;;;;;5138709;27;20057;-72
2023/08/11 14:20:09;;;;;;;6.90;2.28;;;;;;;;;;5139644;27;20038;-71
2023/08/11 14:23:50;;;;;;;9.18;2.58;;;;;;;;;;5140335;27;20130;-71
2023/08/11 14:27:31;;;;;;;9.20;2.58;;;;;;;;;;5141747;27;20044;-73
2023/08/11 14:31:10;;;;;;;9.63;2.65;;;;;;;;;;5138041;27;20502;-73
2023/08/11 14:34:51;;;;;;;5.53;2.42;;;;;;;;;;5139178;27;20260;-71
2023/08/11 14:38:31;;;;;;;8.30;2.47;;;;;;;;;;5141489;27;20526;-72
2023/08/11 14:42:13;;;;;;;10.32;2.53;;;;;;;;;;5137401;27;20046;-73
2023/08/11 14:45:54;;;;;;;8.70;2.80;;;;;;;;;;5136374;27;20051;-73
2023/08/11 14:49:34;;;;;;;11.05;2.63;;;;;;;;;;5140717;27;20231;-73
2023/08/11 14:53:14;;;;;;;9.55;2.50;;;;;;;;;;5138268;27;20091;-74
2023/08/11 14:56:56;;;;;;;12.05;2.78;;;;;;;;;;5138524;27;20177;-72
2023/08/11 15:00:35;;;;;;;10.95;2.88;;;;;;;;;;5136652;27;20055;-75
2023/08/11 15:04:15;;;;;;;9.57;2.90;;;;;;;;;;5140771;27;20056;-71
2023/08/11 15:07:55;;;;;;;8.57;2.47;;;;;;;;;;5139942;27;20057;-75
2023/08/11 15:11:36;;;;;;;8.80;3.08;;;;;;;;;;5143541;27;20050;-69
2023/08/11 15:15:16;;;;;;;5.85;2.45;;;;;;;;;;5138106;27;21570;-75
2023/08/11 15:18:56;;;;;;;11.27;3.10;;;;;;;;;;5134492;27;20055;-73
2023/08/11 15:22:37;;;;;;;9.63;3.08;;;;;;;;;;5136700;27;20056;-69
2023/08/11 15:26:18;;;;;;;11.13;3.03;;;;;;;;;;5137444;27;20539;-73
2023/08/11 15:29:57;;;;;;;9.65;2.90;;;;;;;;;;5136531;27;20088;-71
2023/08/11 15:33:38;;;;;;;8.40;2.70;;;;;;;;;;5140108;27;21991;-72
2023/08/11 15:37:19;;;;;;;11.27;2.92;;;;;;;;;;5137993;27;20428;-68
2023/08/11 15:41:02;;;;;;;9.88;2.78;;;;;;;;;;5135994;27;20145;-70
2023/08/11 15:44:42;;;;;;;6.88;2.55;;;;;;;;;;5136713;27;20042;-71
2023/08/11 15:48:23;;;;;;;8.60;2.90;;;;;;;;;;5139057;27;20069;-71
2023/08/11 15:52:03;;;;;;;8.50;2.70;;;;;;;;;;5134800;27;20047;-70
2023/08/11 15:55:43;;;;;;;12.82;2.85;;;;;;;;;;5153264;27;20235;-79
2023/08/11 15:59:24;;;;;;;9.30;2.70;;;;;;;;;;5139848;27;20039;-70
2023/08/11 16:03:04;;;;;;;9.20;2.95;;;;;;;;;;5137908;27;20042;-70
2023/08/11 16:06:44;;;;;;;11.18;3.35;;;;;;;;;;5136744;27;20070;-71
2023/08/11 16:10:27;;;;;;;11.40;2.95;;;;;;;;;;5136851;27;20044;-74
2023/08/11 16:14:05;;;;;;;9.48;3.15;;;;;;;;;;5138820;27;20546;-72
2023/08/11 16:17:46;;;;;;;8.60;3.05;;;;;;;;;;5137337;27;20067;-72
2023/08/11 16:21:26;;;;;;;8.07;3.10;;;;;;;;;;5136785;27;20126;-71
2023/08/11 16:25:07;;;;;;;8.32;2.85;;;;;;;;;;5136443;27;20069;-72
2023/08/11 16:28:48;;;;;;;8.30;2.90;;;;;;;;;;5137519;27;20126;-72
2023/08/11 16:32:28;;;;;;;11.77;3.38;;;;;;;;;;5143038;27;20248;-70
2023/08/11 16:36:10;;;;;;;9.13;3.08;;;;;;;;;;5135209;27;20050;-70
2023/08/11 16:39:50;;;;;;;10.18;3.20;;;;;;;;;;5136795;27;20037;-72
2023/08/11 16:43:30;;;;;;;10.00;3.40;;;;;;;;;;5138867;27;20046;-73
2023/08/11 16:47:10;;;;;;;16.80;3.53;;;;;;;;;;5137324;27;20397;-70
2023/08/11 16:50:51;;;;;;;10.55;3.30;;;;;;;;;;5135267;27;20098;-71
2023/08/11 16:54:31;;;;;;;12.68;3.47;;;;;;;;;;5138042;27;20046;-69
2023/08/11 16:58:12;;;;;;;11.93;3.35;;;;;;;;;;5137946;27;20042;-70
2023/08/11 17:01:52;;;;;;;12.02;2.88;;;;;;;;;;5135157;27;20177;-73
2023/08/11 17:05:32;;;;;;;9.63;3.17;;;;;;;;;;5136378;27;20043;-73
2023/08/11 17:09:13;;;;;;;9.23;3.05;;;;;;;;;;5143841;27;20034;-75